createdAt,value
2019-06-07T00:02:58.917Z,24.20
2019-06-07T00:08:07.333Z,24.10
2019-06-07T00:13:07.434Z,24.20
2019-06-07T00:18:14.386Z,24.20
2019-06-07T00:23:20.662Z,24.20
2019-06-07T00:28:21.025Z,24.20
2019-06-07T00:33:25.226Z,24.20
2019-06-07T00:38:28.712Z,24.20
2019-06-07T00:43:32.141Z,24.20
2019-06-07T00:48:35.581Z,24.20
2019-06-07T00:53:39.025Z,24.20
2019-06-07T00:58:42.472Z,24.10
2019-06-07T01:03:45.906Z,24.10
2019-06-07T01:08:49.345Z,24.00
2019-06-07T01:13:52.779Z,24.10
2019-06-07T01:18:56.220Z,24.00
2019-06-07T01:24:11.354Z,24.00
2019-06-07T01:29:04.834Z,24.00
2019-06-07T01:34:08.248Z,24.00
2019-06-07T01:39:11.705Z,24.00
2019-06-07T01:44:15.151Z,23.90
2019-06-07T01:49:19.694Z,23.90
2019-06-07T01:59:31.011Z,24.00
2019-06-07T02:04:33.723Z,24.00
2019-06-07T02:09:37.321Z,24.00
2019-06-07T02:14:40.786Z,24.00
2019-06-07T02:19:44.251Z,24.00
2019-06-07T02:25:34.111Z,23.90
2019-06-07T02:29:52.838Z,23.90
2019-06-07T02:34:56.297Z,23.90
2019-06-07T02:39:59.768Z,23.90
2019-06-07T02:45:03.863Z,23.90
2019-06-07T02:50:10.015Z,23.90
2019-06-07T02:55:13.488Z,23.90
2019-06-07T03:05:29.854Z,23.80
2019-06-07T03:10:34.778Z,23.80
2019-06-07T03:15:45.759Z,23.80
2019-06-07T03:20:43.811Z,23.70
2019-06-07T03:25:47.259Z,23.70
2019-06-07T03:31:01.716Z,23.70
2019-06-07T03:35:55.844Z,23.70
2019-06-07T03:40:59.294Z,23.70
2019-06-07T03:46:02.745Z,23.80
2019-06-07T03:51:23.689Z,23.70
2019-06-07T03:56:12.077Z,23.60
2019-06-07T04:01:16.373Z,23.60
2019-06-07T04:06:19.847Z,23.80
2019-06-07T04:11:23.326Z,23.80
2019-06-07T04:16:28.829Z,23.60
2019-06-07T04:21:34.329Z,23.50
2019-06-07T04:26:42.531Z,23.80
2019-06-07T04:31:43.181Z,23.90
2019-06-07T04:36:58.534Z,24.00
2019-06-07T04:41:51.994Z,24.00
2019-06-07T04:46:56.402Z,24.00
2019-06-07T04:51:59.848Z,23.90
2019-06-07T04:57:03.315Z,23.90
2019-06-07T05:02:06.794Z,23.80
2019-06-07T05:07:10.301Z,23.60
2019-06-07T05:12:13.737Z,23.70
2019-06-07T05:17:17.196Z,23.70
2019-06-07T05:22:20.602Z,23.70
2019-06-07T05:27:24.021Z,23.70
2019-06-07T05:32:27.483Z,23.70
2019-06-07T05:37:33.532Z,23.70
2019-06-07T05:42:40.225Z,23.70
2019-06-07T05:47:49.676Z,23.70
2019-06-07T05:52:47.564Z,23.70
2019-06-07T05:57:51.292Z,23.70
2019-06-07T06:03:05.008Z,23.70
2019-06-07T06:07:59.766Z,23.60
2019-06-07T06:13:03.222Z,23.70
2019-06-07T06:18:06.719Z,23.70
2019-06-07T06:23:10.172Z,23.60
2019-06-07T06:28:15.987Z,23.60
2019-06-07T06:33:32.991Z,23.60
2019-06-07T06:38:23.807Z,23.60
2019-06-07T06:43:27.222Z,23.70
2019-06-07T06:48:30.646Z,23.70
2019-06-07T06:53:34.092Z,23.70
2019-06-07T06:59:21.755Z,23.80
2019-06-07T07:04:00.271Z,23.80
2019-06-07T07:08:50.700Z,23.70
2019-06-07T07:13:56.291Z,23.70
2019-06-07T07:18:57.930Z,23.70
2019-06-07T07:24:20.211Z,23.80
2019-06-07T07:29:06.499Z,23.70
2019-06-07T07:34:31.899Z,23.70
2019-06-07T07:39:15.010Z,23.70
2019-06-07T07:44:18.459Z,23.70
2019-06-07T07:49:22.716Z,23.70
2019-06-07T07:54:26.247Z,23.70
2019-06-07T07:59:41.852Z,23.70
2019-06-07T08:05:12.896Z,23.80
2019-06-07T08:09:39.961Z,23.80
2019-06-07T08:14:43.437Z,23.80
2019-06-07T08:19:48.083Z,23.70
2019-06-07T08:24:53.301Z,23.80
2019-06-07T08:30:15.967Z,23.70
2019-06-07T08:35:06.209Z,23.80
2019-06-07T08:40:10.300Z,23.80
2019-06-07T08:45:13.746Z,23.80
2019-06-07T08:50:17.208Z,23.80
2019-06-07T08:55:20.681Z,23.80
2019-06-07T09:05:29.366Z,23.70
2019-06-07T09:10:32.850Z,23.70
2019-06-07T09:15:36.269Z,23.70
2019-06-07T09:20:45.235Z,23.70
2019-06-07T09:25:57.106Z,23.70
2019-06-07T09:30:53.802Z,23.70
2019-06-07T09:35:58.634Z,23.70
2019-06-07T09:41:04.504Z,23.70
2019-06-07T09:46:12.855Z,23.70
2019-06-07T09:51:19.218Z,23.60
2019-06-07T09:56:17.769Z,23.70
2019-06-07T10:01:21.247Z,23.70
2019-06-07T10:06:24.708Z,23.70
2019-06-07T10:11:28.173Z,23.70
2019-06-07T10:16:45.932Z,23.70
2019-06-07T10:21:36.707Z,23.70
2019-06-07T10:26:40.198Z,23.70
2019-06-07T10:31:43.686Z,23.80
2019-06-07T10:36:47.182Z,23.90
2019-06-07T10:41:53.871Z,23.90
2019-06-07T10:46:59.088Z,23.90
2019-06-07T10:52:03.316Z,23.90
2019-06-07T10:57:09.420Z,23.90
2019-06-07T11:02:11.898Z,23.90
2019-06-07T11:07:15.467Z,23.90
2019-06-07T11:12:18.905Z,23.90
2019-06-07T11:17:22.342Z,24.00
2019-06-07T11:22:25.807Z,24.00
2019-06-07T11:27:29.266Z,24.00
2019-06-07T11:32:32.691Z,24.00
2019-06-07T11:37:36.173Z,24.00
2019-06-07T11:42:40.247Z,24.00
2019-06-07T11:47:43.715Z,24.00
2019-06-07T11:52:47.170Z,24.10
2019-06-07T11:57:50.594Z,24.10
2019-06-07T12:02:54.154Z,24.10
2019-06-07T12:07:57.546Z,24.20
2019-06-07T12:13:00.978Z,24.20
2019-06-07T12:18:04.435Z,24.20
2019-06-07T12:23:07.863Z,24.30
2019-06-07T12:28:12.608Z,24.40
2019-06-07T12:33:17.613Z,24.40
2019-06-07T12:38:22.960Z,24.40
2019-06-07T12:43:26.269Z,24.40
2019-06-07T12:48:29.710Z,24.40
2019-06-07T12:53:33.155Z,24.50
2019-06-07T12:58:39.456Z,24.50
2019-06-07T13:03:41.677Z,24.50
2019-06-07T13:08:45.110Z,24.50
2019-06-07T13:13:48.535Z,24.50
2019-06-07T13:18:51.986Z,24.50
2019-06-07T13:23:55.424Z,24.60
2019-06-07T13:28:58.859Z,24.60
2019-06-07T13:34:02.295Z,24.70
2019-06-07T13:39:07.326Z,24.60
2019-06-07T13:44:10.762Z,24.70
2019-06-07T13:49:14.177Z,24.70
2019-06-07T13:54:18.574Z,24.70
2019-06-07T13:59:22.340Z,24.70
2019-06-07T14:04:26.909Z,24.70
2019-06-07T14:09:30.535Z,24.70
2019-06-07T14:14:33.974Z,24.70
2019-06-07T14:19:37.434Z,24.70
2019-06-07T14:24:40.933Z,24.70
2019-06-07T14:29:44.422Z,24.70
2019-06-07T14:34:47.937Z,24.70
2019-06-07T14:39:53.077Z,24.80
2019-06-07T14:44:56.560Z,24.90
2019-06-07T14:50:00.025Z,24.80
2019-06-07T14:55:04.376Z,24.90
2019-06-07T15:00:13.148Z,24.90
2019-06-07T15:05:16.605Z,25.00
2019-06-07T15:10:20.060Z,25.00
2019-06-07T15:15:23.511Z,25.00
2019-06-07T15:20:27.774Z,25.00
2019-06-07T15:25:31.267Z,25.00
2019-06-07T15:30:35.710Z,24.90
2019-06-07T15:35:39.295Z,24.90
2019-06-07T15:40:42.762Z,24.80
2019-06-07T15:45:46.375Z,24.80
2019-06-07T15:50:49.831Z,24.80
2019-06-07T15:55:53.298Z,24.80
2019-06-07T16:00:56.774Z,24.80
2019-06-07T16:06:00.239Z,24.80
2019-06-07T16:11:03.725Z,24.70
2019-06-07T16:16:07.275Z,24.70
2019-06-07T16:21:10.705Z,24.80
2019-06-07T16:26:14.176Z,24.90
2019-06-07T16:31:17.625Z,24.90
2019-06-07T16:36:21.085Z,24.90
2019-06-07T16:41:24.563Z,25.00
2019-06-07T16:46:28.015Z,25.10
2019-06-07T16:51:31.524Z,25.00
2019-06-07T16:56:34.992Z,25.00
2019-06-07T17:01:39.244Z,24.90
2019-06-07T17:06:43.714Z,24.90
2019-06-07T17:11:48.519Z,24.90
2019-06-07T17:16:52.090Z,24.90
2019-06-07T17:21:55.574Z,24.80
2019-06-07T17:26:59.027Z,24.80
2019-06-07T17:32:02.526Z,24.80
2019-06-07T17:37:06.053Z,24.70
2019-06-07T17:42:09.693Z,24.70
2019-06-07T17:47:13.179Z,24.70
2019-06-07T17:52:16.636Z,24.70
2019-06-07T17:57:20.123Z,24.70
2019-06-07T18:02:23.846Z,24.70
2019-06-07T18:07:27.311Z,24.70
2019-06-07T18:14:34.060Z,24.80
2019-06-07T18:19:37.516Z,24.90
2019-06-07T18:24:41.186Z,24.90
2019-06-07T18:29:44.642Z,24.80
2019-06-07T18:34:48.760Z,24.90
2019-06-07T18:39:53.149Z,24.90
2019-06-07T18:44:56.713Z,24.90
2019-06-07T18:50:00.294Z,24.90
2019-06-07T18:55:04.866Z,25.00
2019-06-07T19:00:13.455Z,25.00
2019-06-07T19:05:17.003Z,25.00
2019-06-07T19:10:20.467Z,25.00
2019-06-07T19:15:24.109Z,24.90
2019-06-07T19:20:27.572Z,25.10
2019-06-07T19:25:31.022Z,25.10
2019-06-07T19:30:34.553Z,25.00
2019-06-07T19:35:38.095Z,25.00
2019-06-07T19:40:41.589Z,25.00
2019-06-07T19:45:45.122Z,25.00
2019-06-07T19:50:48.712Z,25.00
2019-06-07T19:55:53.046Z,24.90
2019-06-07T20:00:57.649Z,24.90
2019-06-07T20:06:02.353Z,24.90
2019-06-07T20:11:06.143Z,24.90
2019-06-07T20:16:09.597Z,24.70
2019-06-07T20:21:13.163Z,24.80
2019-06-07T20:26:18.846Z,24.70
2019-06-07T20:31:22.292Z,24.60
2019-06-07T20:36:26.068Z,24.70
2019-06-07T20:41:29.581Z,24.80
2019-06-07T20:46:33.039Z,24.80
2019-06-07T20:51:36.610Z,24.90
2019-06-07T20:56:40.119Z,24.90
2019-06-07T21:01:43.571Z,25.00
2019-06-07T21:06:47.279Z,24.90
2019-06-07T21:11:50.765Z,25.00
2019-06-07T21:16:54.307Z,25.00
2019-06-07T21:21:57.797Z,25.10
2019-06-07T21:27:01.641Z,25.10
2019-06-07T21:36:35.489Z,25.10
2019-06-07T21:41:40.134Z,25.10
2019-06-07T21:46:43.769Z,25.10
2019-06-07T21:51:47.169Z,25.10
2019-06-07T21:56:50.674Z,25.00
2019-06-07T22:01:54.265Z,25.10
2019-06-07T22:06:57.713Z,25.00
2019-06-07T22:12:01.293Z,25.00
2019-06-07T22:17:06.134Z,25.00
2019-06-07T22:22:11.028Z,25.10
2019-06-07T22:27:15.679Z,25.10
2019-06-07T22:32:19.386Z,25.00
2019-06-07T22:37:23.710Z,25.10
2019-06-07T22:42:27.397Z,25.10
2019-06-07T22:47:30.878Z,25.10
2019-06-07T22:52:34.345Z,25.10
2019-06-07T22:57:55.957Z,25.00
2019-06-07T23:02:59.682Z,25.00
2019-06-07T23:08:03.396Z,25.00
2019-06-07T23:13:06.881Z,25.00
2019-06-07T23:18:11.368Z,25.10
2019-06-07T23:23:15.170Z,24.90
2019-06-07T23:28:18.783Z,24.70
2019-06-07T23:33:22.427Z,24.80
2019-06-07T23:38:25.879Z,24.70
2019-06-07T23:43:29.367Z,24.70
2019-06-07T23:48:32.971Z,24.60
2019-06-07T23:53:36.381Z,24.60
2019-06-07T23:58:39.844Z,24.60
